Time;durP1;ratioP1;P1;durP2;ratioP2;P2;SDS_P1;SDS_P2;PMS_P1;PMS_P2;Temp;Humidity;BMP_temperature;BMP_pressure;BME280_temperature;BME280_humidity;BME280_pressure;Samples;Min_cycle;Max_cycle;Signal;HPM_P1;HPM_P2
2022/06/16 00:00:11;;;;;;;1.35;0.50;;;13.50;99.90;;;;;;5057927;28;20121;-71
2022/06/16 00:02:42;;;;;;;0.80;0.38;;;13.50;99.90;;;;;;5067780;28;20515;-70
2022/06/16 00:05:11;;;;;;;0.52;0.30;;;13.50;99.90;;;;;;5083199;28;20040;-71
2022/06/16 00:07:37;;;;;;;0.38;0.20;;;13.40;99.90;;;;;;5070379;28;20036;-70
2022/06/16 00:10:04;;;;;;;0.45;0.40;;;13.40;99.90;;;;;;5068839;28;20040;-71
2022/06/16 00:12:30;;;;;;;0.68;0.30;;;13.30;99.90;;;;;;5079038;28;20043;-71
2022/06/16 00:14:56;;;;;;;0.30;0.30;;;13.40;99.90;;;;;;5075512;28;20044;-70
2022/06/16 00:17:22;;;;;;;0.85;0.30;;;13.30;99.90;;;;;;5061759;28;20041;-71
2022/06/16 00:19:48;;;;;;;0.65;0.30;;;13.30;99.90;;;;;;5055148;28;20139;-71
2022/06/16 00:22:13;;;;;;;0.38;0.28;;;13.40;99.90;;;;;;5072825;28;20090;-70
2022/06/16 00:24:39;;;;;;;0.65;0.40;;;13.40;99.90;;;;;;5066798;28;20476;-71
2022/06/16 00:27:05;;;;;;;0.50;0.40;;;13.30;99.90;;;;;;5072887;28;20063;-71
2022/06/16 00:29:31;;;;;;;1.23;0.60;;;13.20;99.90;;;;;;5084853;28;20121;-70
2022/06/16 00:31:56;;;;;;;1.13;0.60;;;13.20;99.90;;;;;;5053122;28;20049;-71
2022/06/16 00:34:22;;;;;;;0.65;0.45;;;13.10;99.90;;;;;;5047394;28;20432;-70
2022/06/16 00:36:48;;;;;;;0.93;0.60;;;13.10;99.90;;;;;;5068806;28;20500;-71
2022/06/16 00:39:14;;;;;;;0.73;0.50;;;13.10;99.90;;;;;;5069646;28;20040;-71
2022/06/16 00:41:40;;;;;;;0.52;0.25;;;13.10;99.90;;;;;;5063750;28;20040;-71
2022/06/16 00:44:23;;;;;;;1.02;0.52;;;13.10;99.90;;;;;;5068094;28;20041;-70
2022/06/16 00:46:49;;;;;;;0.70;0.40;;;13.20;99.90;;;;;;5068964;28;20131;-71
2022/06/16 00:49:15;;;;;;;0.73;0.50;;;13.10;99.90;;;;;;5068751;28;20139;-71
2022/06/16 00:51:45;;;;;;;1.15;0.40;;;13.20;99.90;;;;;;5068416;28;20051;-70
2022/06/16 00:54:33;;;;;;;2.05;0.65;;;13.10;99.90;;;;;;5070270;28;20040;-71
2022/06/16 00:57:05;;;;;;;0.70;0.40;;;13.10;99.90;;;;;;5071665;28;20079;-70
2022/06/16 00:59:31;;;;;;;0.80;0.40;;;13.00;99.90;;;;;;5075198;28;20052;-70
2022/06/16 01:01:56;;;;;;;1.05;0.40;;;13.00;99.90;;;;;;5069061;28;20047;-70
2022/06/16 01:07:10;;;;;;;0.50;0.38;;;13.00;99.90;;;;;;5073427;28;20066;-71
2022/06/16 01:09:37;;;;;;;0.73;0.50;;;13.00;99.90;;;;;;5087033;28;20095;-71
2022/06/16 01:15:02;;;;;;;;;;;12.90;99.90;;;;;;5080836;28;20137;-70
2022/06/16 01:17:47;;;;;;;1.35;0.55;;;12.80;99.90;;;;;;5071747;28;19924;-70
2022/06/16 01:20:24;;;;;;;1.08;0.55;;;12.70;99.90;;;;;;5061781;28;20491;-70
2022/06/16 01:23:11;;;;;;;1.27;0.50;;;12.80;99.90;;;;;;5045474;28;20112;-70
2022/06/16 01:25:43;;;;;;;1.02;0.50;;;12.80;99.90;;;;;;5072715;28;20048;-71
2022/06/16 01:28:11;;;;;;;1.60;0.73;;;12.90;99.90;;;;;;5067037;28;20139;-70
2022/06/16 01:30:48;;;;;;;1.33;0.70;;;12.80;99.90;;;;;;5067732;28;20480;-70
2022/06/16 01:33:27;;;;;;;0.93;0.68;;;12.90;99.90;;;;;;5052647;28;20373;-71
2022/06/16 01:36:11;;;;;;;1.17;0.50;;;12.80;99.90;;;;;;5069700;28;20476;-71
2022/06/16 01:38:59;;;;;;;0.98;0.40;;;12.70;99.90;;;;;;5071959;28;20480;-70
2022/06/16 01:41:48;;;;;;;1.00;0.43;;;12.80;99.90;;;;;;5048849;28;20040;-71
2022/06/16 01:44:31;;;;;;;0.40;0.30;;;12.80;99.90;;;;;;5060315;28;20087;-70
2022/06/16 01:47:00;;;;;;;0.75;0.50;;;12.80;99.90;;;;;;5054726;28;20052;-70
2022/06/16 01:49:32;;;;;;;0.60;0.40;;;12.80;99.90;;;;;;5079234;28;20087;-70
2022/06/16 01:52:38;;;;;;;0.95;0.38;;;12.80;99.90;;;;;;5067836;28;20056;-70
2022/06/16 01:55:26;;;;;;;0.68;0.40;;;12.80;99.90;;;;;;4998625;28;20093;-71
2022/06/16 01:58:06;;;;;;;0.93;0.40;;;12.90;99.90;;;;;;5050632;28;20050;-71
2022/06/16 02:00:33;;;;;;;0.73;0.30;;;12.90;99.90;;;;;;5067528;28;21041;-71
2022/06/16 02:03:31;;;;;;;0.50;0.30;;;12.90;99.90;;;;;;5073285;28;20071;-71
2022/06/16 02:06:06;;;;;;;0.88;0.47;;;12.90;99.90;;;;;;5043828;28;20052;-71
2022/06/16 02:08:37;;;;;;;0.57;0.40;;;12.90;99.90;;;;;;5067328;28;20048;-71
2022/06/16 02:11:26;;;;;;;0.52;0.40;;;12.90;99.90;;;;;;5074327;28;20040;-71
2022/06/16 02:14:14;;;;;;;0.57;0.38;;;12.90;99.90;;;;;;5067940;28;20051;-71
2022/06/16 02:16:41;;;;;;;1.60;0.45;;;12.90;99.90;;;;;;5072374;28;20057;-71
2022/06/16 02:19:13;;;;;;;0.55;0.40;;;12.90;99.90;;;;;;5077669;28;20111;-71
2022/06/16 02:21:46;;;;;;;1.23;0.60;;;12.90;99.90;;;;;;5067234;28;20119;-71
2022/06/16 02:24:16;;;;;;;0.82;0.50;;;12.90;99.90;;;;;;5068459;28;20033;-71
2022/06/16 02:26:43;;;;;;;0.63;0.43;;;12.90;99.90;;;;;;5066922;28;20047;-71
2022/06/16 02:29:36;;;;;;;0.52;0.40;;;12.90;99.90;;;;;;5053858;28;20068;-71
2022/06/16 02:32:08;;;;;;;0.88;0.43;;;12.80;99.90;;;;;;5068164;28;20055;-71
2022/06/16 02:34:43;;;;;;;0.30;0.30;;;12.80;99.90;;;;;;5062778;28;20075;-71
2022/06/16 02:37:20;;;;;;;0.55;0.40;;;12.70;99.90;;;;;;5073701;28;20041;-71
2022/06/16 02:39:55;;;;;;;0.50;0.30;;;12.60;99.90;;;;;;5045969;28;20068;-71
2022/06/16 02:42:37;;;;;;;0.45;0.30;;;12.60;99.90;;;;;;5067684;28;20028;-71
2022/06/16 02:45:25;;;;;;;0.82;0.40;;;12.60;99.90;;;;;;5054945;28;20174;-71
2022/06/16 02:48:09;;;;;;;0.57;0.40;;;12.50;99.90;;;;;;5085832;28;20047;-71
2022/06/16 02:50:42;;;;;;;0.40;0.30;;;12.50;99.90;;;;;;5068194;28;20467;-72
2022/06/16 02:53:30;;;;;;;0.38;0.20;;;12.40;99.90;;;;;;5072039;28;20109;-71
2022/06/16 02:56:01;;;;;;;0.80;0.50;;;12.30;99.90;;;;;;5058755;28;20048;-71
2022/06/16 02:58:29;;;;;;;0.50;0.35;;;12.20;99.90;;;;;;5072571;28;20067;-71
2022/06/16 03:00:56;;;;;;;0.73;0.50;;;12.20;99.90;;;;;;5069523;28;20032;-71
2022/06/16 03:03:28;;;;;;;1.20;0.55;;;12.20;99.90;;;;;;5070921;28;20040;-71
2022/06/16 03:05:56;;;;;;;1.10;0.50;;;12.20;99.90;;;;;;5057380;28;20048;-71
2022/06/16 03:08:23;;;;;;;0.40;0.40;;;12.20;99.90;;;;;;5085318;28;20505;-71
2022/06/16 03:10:53;;;;;;;0.88;0.40;;;12.20;99.90;;;;;;5061198;28;20075;-71
2022/06/16 03:13:27;;;;;;;1.13;0.50;;;12.20;99.90;;;;;;5053168;28;20055;-71
2022/06/16 03:15:55;;;;;;;0.63;0.40;;;12.20;99.90;;;;;;5075357;28;20419;-71
2022/06/16 03:18:22;;;;;;;0.40;0.30;;;12.10;99.90;;;;;;5076964;28;20035;-71
2022/06/16 03:20:49;;;;;;;0.93;0.45;;;12.00;99.90;;;;;;5070955;28;20048;-71
2022/06/16 03:23:15;;;;;;;0.95;0.50;;;12.00;99.90;;;;;;5083357;28;20059;-71
2022/06/16 03:25:42;;;;;;;0.77;0.50;;;12.10;99.90;;;;;;5078113;28;20070;-71
2022/06/16 03:28:08;;;;;;;0.90;0.60;;;12.00;99.90;;;;;;5071455;28;20041;-71
2022/06/16 03:30:34;;;;;;;;;;;12.00;99.90;;;;;;5088361;28;20391;-71
2022/06/16 03:33:01;;;;;;;1.15;0.60;;;12.10;99.90;;;;;;5081084;28;19927;-71
2022/06/16 03:35:28;;;;;;;0.75;0.40;;;12.10;99.90;;;;;;5070011;28;20110;-71
2022/06/16 03:37:53;;;;;;;0.68;0.40;;;12.10;99.90;;;;;;5068941;28;20093;-71
2022/06/16 03:40:20;;;;;;;0.75;0.40;;;12.20;99.90;;;;;;5069775;28;20036;-71
2022/06/16 03:42:49;;;;;;;1.48;0.40;;;12.20;99.90;;;;;;5070146;28;20479;-71
2022/06/16 03:45:15;;;;;;;0.95;0.40;;;12.30;99.90;;;;;;5071043;28;20041;-71
2022/06/16 03:47:41;;;;;;;0.98;0.50;;;12.30;99.90;;;;;;5070128;28;20063;-71
2022/06/16 03:50:10;;;;;;;0.70;0.40;;;12.30;99.90;;;;;;5068867;28;20079;-71
2022/06/16 03:52:36;;;;;;;0.68;0.38;;;12.30;99.90;;;;;;5052459;28;20115;-71
2022/06/16 03:55:01;;;;;;;0.73;0.40;;;12.30;99.90;;;;;;5077496;28;20115;-71
2022/06/16 03:57:27;;;;;;;0.40;0.40;;;12.30;99.90;;;;;;5081995;28;20048;-71
2022/06/16 03:59:53;;;;;;;1.35;0.30;;;12.40;99.90;;;;;;5071340;28;20090;-71
2022/06/16 04:02:18;;;;;;;0.73;0.30;;;12.40;99.90;;;;;;5025672;28;20048;-71
2022/06/16 04:04:45;;;;;;;0.63;0.40;;;12.40;99.90;;;;;;5070795;28;20028;-71
2022/06/16 04:07:11;;;;;;;0.50;0.35;;;12.40;99.90;;;;;;5070516;28;20044;-71
2022/06/16 04:09:36;;;;;;;0.52;0.43;;;12.50;99.90;;;;;;5070849;28;20071;-72
2022/06/16 04:12:03;;;;;;;0.50;0.30;;;12.50;99.90;;;;;;5068051;28;20084;-71
2022/06/16 04:14:28;;;;;;;0.50;0.40;;;12.60;99.90;;;;;;5069666;28;20052;-71
2022/06/16 04:16:56;;;;;;;0.70;0.30;;;12.60;99.90;;;;;;5063183;28;20052;-71
2022/06/16 04:19:22;;;;;;;0.35;0.30;;;12.70;99.90;;;;;;5069827;28;20498;-71
2022/06/16 04:21:49;;;;;;;1.23;0.30;;;12.80;99.90;;;;;;5073095;28;20342;-71
2022/06/16 04:24:16;;;;;;;0.57;0.40;;;12.80;99.90;;;;;;5052941;28;20484;-71
2022/06/16 04:26:42;;;;;;;0.30;0.30;;;12.80;99.90;;;;;;5070543;28;20071;-71
2022/06/16 04:29:10;;;;;;;0.50;0.45;;;13.00;99.90;;;;;;5069252;28;20074;-71
2022/06/16 04:31:36;;;;;;;0.47;0.40;;;13.00;99.90;;;;;;5071487;28;20056;-71
2022/06/16 04:34:02;;;;;;;0.75;0.30;;;13.10;99.90;;;;;;5076678;28;20064;-71
2022/06/16 04:36:29;;;;;;;0.38;0.30;;;13.10;99.90;;;;;;5047582;28;20107;-71
2022/06/16 04:38:55;;;;;;;0.38;0.38;;;13.20;99.90;;;;;;5067161;28;20052;-71
2022/06/16 04:41:22;;;;;;;0.60;0.40;;;13.30;99.90;;;;;;5068084;28;20416;-71
2022/06/16 04:43:48;;;;;;;0.63;0.50;;;13.40;99.90;;;;;;5069774;28;20036;-71
2022/06/16 04:46:14;;;;;;;0.68;0.40;;;13.50;99.90;;;;;;5068585;28;20509;-71
2022/06/16 04:48:41;;;;;;;0.63;0.50;;;13.70;99.90;;;;;;5072722;28;20566;-71
2022/06/16 04:51:07;;;;;;;1.02;0.45;;;13.80;99.90;;;;;;5074733;28;20072;-70
2022/06/16 04:53:33;;;;;;;0.90;0.47;;;13.90;99.90;;;;;;5030296;28;20079;-71
2022/06/16 04:56:00;;;;;;;;;;;14.00;99.90;;;;;;5058298;28;20355;-71
2022/06/16 04:58:27;;;;;;;1.20;0.57;;;14.10;99.90;;;;;;5056209;28;20252;-71
2022/06/16 05:00:54;;;;;;;0.75;0.50;;;14.20;99.90;;;;;;5072405;28;20040;-72
2022/06/16 05:03:22;;;;;;;1.48;0.60;;;14.30;99.90;;;;;;5058142;28;20072;-71
2022/06/16 05:05:49;;;;;;;1.77;0.65;;;14.50;99.90;;;;;;5055412;28;20044;-70
2022/06/16 05:08:16;;;;;;;2.28;0.90;;;14.50;99.90;;;;;;5052274;28;20387;-71
2022/06/16 05:10:43;;;;;;;2.15;0.90;;;14.60;99.90;;;;;;5051771;28;20048;-71
2022/06/16 05:13:09;;;;;;;1.83;0.70;;;14.60;99.90;;;;;;5040690;28;20553;-71
2022/06/16 05:15:35;;;;;;;1.15;0.75;;;14.70;99.90;;;;;;5056105;28;20049;-71
2022/06/16 05:18:01;;;;;;;1.67;0.88;;;14.80;99.90;;;;;;5050064;28;20073;-70
2022/06/16 05:20:27;;;;;;;;;;;14.80;99.90;;;;;;5053364;28;20496;-70
2022/06/16 05:22:52;;;;;;;1.55;0.60;;;14.90;99.90;;;;;;5043608;28;19969;-70
2022/06/16 05:25:18;;;;;;;1.00;0.50;;;14.90;99.90;;;;;;5043935;28;20090;-70
2022/06/16 05:27:44;;;;;;;0.75;0.63;;;14.90;99.90;;;;;;5079873;28;20091;-70
2022/06/16 05:30:10;;;;;;;0.55;0.35;;;15.00;99.90;;;;;;5065181;28;20037;-70
2022/06/16 05:32:36;;;;;;;1.05;0.60;;;15.00;99.90;;;;;;5072036;28;20128;-70
2022/06/16 05:35:02;;;;;;;0.57;0.50;;;15.00;99.90;;;;;;5081072;28;20127;-70
2022/06/16 05:37:30;;;;;;;0.50;0.30;;;15.00;99.90;;;;;;5051033;28;20424;-70
2022/06/16 05:39:56;;;;;;;0.45;0.30;;;15.10;99.90;;;;;;5066581;28;20040;-70
2022/06/16 05:42:22;;;;;;;0.52;0.35;;;15.00;99.90;;;;;;5068449;28;20395;-70
2022/06/16 05:44:48;;;;;;;0.77;0.50;;;15.10;99.90;;;;;;5081548;28;20040;-70
2022/06/16 05:47:13;;;;;;;1.13;0.50;;;15.10;99.90;;;;;;5069442;28;20127;-70
2022/06/16 05:49:40;;;;;;;0.50;0.30;;;15.00;99.90;;;;;;5066711;28;20044;-70
2022/06/16 05:52:12;;;;;;;1.92;0.60;;;15.00;99.90;;;;;;5074587;28;20048;-70
2022/06/16 05:54:37;;;;;;;0.80;0.50;;;15.00;99.90;;;;;;5064953;28;20062;-70
2022/06/16 05:57:04;;;;;;;0.55;0.40;;;15.10;99.90;;;;;;5067870;28;20172;-70
2022/06/16 05:59:29;;;;;;;;;;;15.10;99.90;;;;;;5062323;28;20076;-70
2022/06/16 06:01:55;;;;;;;0.52;0.20;;;15.20;99.90;;;;;;5066991;28;19960;-70
2022/06/16 06:04:22;;;;;;;0.28;0.25;;;15.40;99.90;;;;;;5048157;28;20040;-70
2022/06/16 06:06:47;;;;;;;0.68;0.30;;;15.50;99.90;;;;;;5061143;28;20135;-70
2022/06/16 06:17:27;;;;;;;1.52;0.50;;;15.70;99.90;;;;;;5053568;28;20044;-69
2022/06/16 06:19:53;;;;;;;1.75;0.60;;;15.80;99.90;;;;;;5068703;28;20048;-70
2022/06/16 06:22:23;;;;;;;0.73;0.43;;;15.90;99.90;;;;;;5081829;28;20070;-70
2022/06/16 06:24:55;;;;;;;1.33;0.47;;;16.00;99.90;;;;;;5078016;28;20071;-70
2022/06/16 06:27:41;;;;;;;1.05;0.50;;;16.20;99.90;;;;;;5089663;28;20040;-70
2022/06/16 06:30:12;;;;;;;2.22;0.60;;;16.20;99.90;;;;;;5092677;28;20080;-70
2022/06/16 06:32:38;;;;;;;1.55;0.45;;;16.20;99.90;;;;;;5077212;28;20179;-70
2022/06/16 06:35:05;;;;;;;1.00;0.30;;;16.40;99.90;;;;;;5080468;28;20075;-70
2022/06/16 06:37:30;;;;;;;1.23;0.32;;;16.40;99.90;;;;;;5078731;28;20123;-70
2022/06/16 06:39:57;;;;;;;1.02;0.50;;;16.40;99.90;;;;;;5092870;28;20589;-70
2022/06/16 06:42:22;;;;;;;1.50;0.63;;;16.50;99.90;;;;;;5080789;28;20123;-70
2022/06/16 06:44:48;;;;;;;1.33;0.47;;;16.40;99.90;;;;;;5089480;28;20155;-70
2022/06/16 06:47:19;;;;;;;0.93;0.47;;;16.40;99.90;;;;;;5072637;28;20040;-70
2022/06/16 06:49:45;;;;;;;1.25;0.52;;;16.40;99.90;;;;;;5089153;28;20040;-69
2022/06/16 06:52:10;;;;;;;;;;;16.40;99.90;;;;;;5084431;28;20044;-69
2022/06/16 06:54:36;;;;;;;0.93;0.43;;;16.50;99.90;;;;;;5070297;28;19999;-70
2022/06/16 06:57:02;;;;;;;0.88;0.50;;;16.60;99.90;;;;;;5085886;28;20063;-70
2022/06/16 06:59:27;;;;;;;1.23;0.43;;;16.70;99.90;;;;;;5085172;28;20311;-70
2022/06/16 07:01:53;;;;;;;1.30;0.50;;;16.80;99.90;;;;;;5075490;28;20395;-70
2022/06/16 07:04:19;;;;;;;2.88;0.77;;;16.90;99.90;;;;;;5082158;28;20040;-70
2022/06/16 07:06:46;;;;;;;;;;;17.00;99.90;;;;;;5070262;28;20364;-70
2022/06/16 07:09:13;;;;;;;1.98;0.70;;;17.00;99.90;;;;;;5055418;28;20003;-70
2022/06/16 07:11:42;;;;;;;1.52;0.47;;;17.10;99.90;;;;;;5086224;28;20040;-69
2022/06/16 07:14:09;;;;;;;0.93;0.40;;;17.10;99.90;;;;;;5079626;28;20484;-70
2022/06/16 07:16:35;;;;;;;1.92;0.60;;;17.20;99.90;;;;;;5061701;28;20450;-70
2022/06/16 07:19:01;;;;;;;1.15;0.50;;;17.30;99.90;;;;;;5091686;28;20040;-70
2022/06/16 07:21:27;;;;;;;1.35;0.60;;;17.40;99.90;;;;;;5080758;28;20353;-69
2022/06/16 07:23:54;;;;;;;2.88;0.70;;;17.50;99.90;;;;;;5082426;28;20099;-69
2022/06/16 07:26:20;;;;;;;1.88;0.75;;;17.50;99.90;;;;;;5067726;28;20434;-70
2022/06/16 07:28:47;;;;;;;;;;;17.60;99.90;;;;;;5077739;28;20656;-70
2022/06/16 07:31:13;;;;;;;2.22;0.82;;;17.50;99.90;;;;;;5086137;28;19916;-69
2022/06/16 07:33:39;;;;;;;2.20;0.73;;;17.70;99.90;;;;;;5071101;28;20040;-70
2022/06/16 07:36:05;;;;;;;1.50;0.68;;;17.70;99.90;;;;;;5054925;28;20051;-69
2022/06/16 07:38:31;;;;;;;;;;;17.80;99.90;;;;;;5080136;28;20043;-69
2022/06/16 07:43:41;;;;;;;2.50;0.90;;;18.00;99.90;;;;;;5091572;28;20494;-70
2022/06/16 07:46:07;;;;;;;2.60;0.70;;;18.00;99.90;;;;;;5090620;28;20071;-70
2022/06/16 07:48:33;;;;;;;3.17;0.77;;;18.00;99.90;;;;;;5071042;28;20121;-69
2022/06/16 07:50:59;;;;;;;2.30;0.93;;;18.10;99.90;;;;;;5088390;28;20431;-70
2022/06/16 07:53:25;;;;;;;4.40;1.27;;;18.10;99.90;;;;;;5070887;28;20052;-70
2022/06/16 07:55:50;;;;;;;;;;;18.30;99.90;;;;;;5082539;28;20051;-70
2022/06/16 07:58:16;;;;;;;3.78;1.20;;;18.50;99.40;;;;;;5074404;28;20017;-69
2022/06/16 08:00:42;;;;;;;1.73;0.80;;;18.40;99.90;;;;;;5087964;28;20045;-70
2022/06/16 08:03:07;;;;;;;;;;;18.30;99.60;;;;;;5085680;28;20044;-70
2022/06/16 08:05:33;;;;;;;1.92;0.70;;;18.40;99.90;;;;;;5071229;28;19990;-69
2022/06/16 08:07:59;;;;;;;;;;;18.60;99.90;;;;;;5067529;28;20044;-69
2022/06/16 08:10:27;;;;;;;1.90;0.70;;;18.80;99.90;;;;;;5086534;28;19916;-69
2022/06/16 08:12:53;;;;;;;1.42;0.60;;;19.10;99.90;;;;;;5082365;28;20051;-69
2022/06/16 08:15:19;;;;;;;;;;;19.40;99.90;;;;;;5077087;28;20054;-69
2022/06/16 08:17:49;;;;;;;1.00;0.55;;;19.70;99.90;;;;;;5074625;28;20387;-69
2022/06/16 08:20:15;;;;;;;1.00;0.60;;;19.70;97.90;;;;;;5086288;28;20043;-69
2022/06/16 08:22:41;;;;;;;1.08;0.50;;;20.10;98.00;;;;;;5074228;28;20089;-69
2022/06/16 08:25:08;;;;;;;1.05;0.50;;;20.30;97.30;;;;;;5076928;28;20078;-70
2022/06/16 08:27:36;;;;;;;1.52;0.68;;;20.60;97.00;;;;;;5058020;28;20093;-69
2022/06/16 08:30:08;;;;;;;1.33;0.60;;;20.80;95.70;;;;;;5087308;28;20498;-70
2022/06/16 08:32:33;;;;;;;2.67;1.00;;;20.80;96.20;;;;;;5088423;28;20404;-70
2022/06/16 08:34:59;;;;;;;1.90;0.77;;;20.80;96.40;;;;;;5090934;28;20036;-70
2022/06/16 08:37:25;;;;;;;1.38;0.60;;;20.50;93.90;;;;;;5077417;28;20429;-70
2022/06/16 08:39:51;;;;;;;0.82;0.50;;;20.60;94.80;;;;;;5084723;28;20041;-69
2022/06/16 08:42:42;;;;;;;1.27;0.70;;;21.10;95.10;;;;;;5070682;28;20071;-69
2022/06/16 08:45:24;;;;;;;2.38;0.98;;;21.30;95.10;;;;;;5056405;28;20032;-70
2022/06/16 08:48:03;;;;;;;2.47;0.70;;;20.90;93.90;;;;;;5069917;28;20052;-69
2022/06/16 08:50:45;;;;;;;2.30;1.08;;;21.00;93.90;;;;;;5070279;28;20048;-70
2022/06/16 08:53:46;;;;;;;1.30;0.80;;;20.80;94.00;;;;;;5087105;28;20496;-70
2022/06/16 08:56:21;;;;;;;2.20;1.05;;;21.10;95.00;;;;;;5053387;28;20040;-69
2022/06/16 08:58:57;;;;;;;2.63;1.00;;;20.70;94.70;;;;;;5063937;28;20119;-70
2022/06/16 09:01:38;;;;;;;0.90;0.73;;;20.40;94.40;;;;;;5075820;28;20492;-69
2022/06/16 09:04:15;;;;;;;1.88;0.80;;;20.30;95.10;;;;;;5069701;28;20047;-70
2022/06/16 09:06:47;;;;;;;1.23;0.60;;;20.60;95.80;;;;;;5053115;28;20049;-69
2022/06/16 09:12:43;;;;;;;1.60;0.80;;;20.40;94.20;;;;;;5056974;28;20048;-70
2022/06/16 09:16:03;;;;;;;1.85;0.75;;;20.20;95.20;;;;;;5085324;28;20173;-69
2022/06/16 09:18:41;;;;;;;2.58;1.02;;;20.00;95.60;;;;;;4997215;28;20133;-70
2022/06/16 09:21:07;;;;;;;1.73;1.00;;;20.00;95.80;;;;;;5067452;28;20058;-70
2022/06/16 09:24:04;;;;;;;1.95;1.15;;;19.80;96.00;;;;;;5075782;28;20480;-70
2022/06/16 09:26:47;;;;;;;1.40;0.85;;;19.60;95.80;;;;;;5078579;28;20047;-69
2022/06/16 09:29:16;;;;;;;2.97;1.30;;;19.60;96.80;;;;;;5058192;28;20143;-70
2022/06/16 09:31:51;;;;;;;1.35;1.05;;;19.80;96.50;;;;;;5064867;28;20040;-69
2022/06/16 09:34:40;;;;;;;2.03;1.10;;;19.90;96.30;;;;;;5052877;28;20040;-69
2022/06/16 09:37:13;;;;;;;2.20;1.30;;;20.50;97.10;;;;;;5080063;28;20044;-70
2022/06/16 09:39:43;;;;;;;2.75;1.08;;;20.50;95.60;;;;;;5089153;28;20043;-70
2022/06/16 09:42:33;;;;;;;3.72;1.20;;;20.70;95.50;;;;;;5079489;28;20050;-70
2022/06/16 09:45:24;;;;;;;3.20;1.40;;;20.60;93.90;;;;;;5057970;28;20449;-69
2022/06/16 09:48:08;;;;;;;2.15;1.00;;;20.50;94.40;;;;;;5074539;28;20383;-69
2022/06/16 09:51:12;;;;;;;2.45;1.20;;;20.70;95.10;;;;;;5078540;28;20044;-69
2022/06/16 09:53:51;;;;;;;1.80;0.80;;;21.20;95.10;;;;;;5025024;28;20048;-70
2022/06/16 09:56:39;;;;;;;2.65;1.40;;;21.60;94.30;;;;;;5085750;28;20123;-69
2022/06/16 09:59:14;;;;;;;1.48;0.90;;;21.70;93.90;;;;;;5062080;28;20036;-70
2022/06/16 10:01:47;;;;;;;2.17;1.30;;;22.10;94.30;;;;;;5072532;28;20495;-70
2022/06/16 10:04:13;;;;;;;2.08;1.10;;;22.30;93.70;;;;;;5085918;28;20508;-69
2022/06/16 10:06:48;;;;;;;1.73;1.00;;;22.30;93.50;;;;;;5084873;28;20044;-69
2022/06/16 10:09:41;;;;;;;1.60;0.88;;;22.30;93.00;;;;;;5080283;28;20055;-69
2022/06/16 10:12:31;;;;;;;1.83;0.90;;;22.60;93.00;;;;;;5073700;28;20123;-69
2022/06/16 10:15:35;;;;;;;1.77;1.23;;;22.90;92.90;;;;;;5089149;28;20055;-70
2022/06/16 10:18:04;;;;;;;3.15;1.30;;;22.70;92.30;;;;;;5060477;28;20175;-70
2022/06/16 10:20:31;;;;;;;2.45;1.00;;;22.30;91.80;;;;;;5068957;28;20108;-70
2022/06/16 10:23:16;;;;;;;2.20;1.20;;;22.30;92.40;;;;;;5079081;28;20032;-70
2022/06/16 10:25:47;;;;;;;2.17;1.23;;;22.40;91.80;;;;;;5074695;28;20501;-70
2022/06/16 10:28:30;;;;;;;2.67;1.40;;;22.30;91.60;;;;;;5064865;28;20044;-71
2022/06/16 10:30:57;;;;;;;3.15;1.25;;;22.70;91.80;;;;;;5072903;28;20099;-70
2022/06/16 10:33:33;;;;;;;1.48;1.00;;;22.80;91.80;;;;;;5080878;28;20495;-70
2022/06/16 10:36:17;;;;;;;2.65;1.20;;;23.00;92.10;;;;;;5072780;28;20377;-70
2022/06/16 10:39:23;;;;;;;2.85;1.60;;;22.90;91.90;;;;;;5079318;28;20084;-69
2022/06/16 10:41:51;;;;;;;2.47;1.25;;;22.60;91.00;;;;;;5059408;28;20032;-70
2022/06/16 10:44:19;;;;;;;2.22;1.55;;;22.70;91.50;;;;;;5075145;28;20041;-70
2022/06/16 10:46:55;;;;;;;3.53;1.50;;;22.40;89.70;;;;;;5080239;28;20489;-70
2022/06/16 10:49:36;;;;;;;1.67;1.10;;;22.60;89.50;;;;;;5075668;28;20120;-70
2022/06/16 10:52:22;;;;;;;2.63;1.27;;;22.50;90.10;;;;;;5072800;28;20055;-70
2022/06/16 10:55:02;;;;;;;3.13;1.40;;;22.60;90.60;;;;;;5070359;28;20110;-70
2022/06/16 10:57:40;;;;;;;2.53;1.67;;;22.70;90.60;;;;;;5061839;28;20048;-70
2022/06/16 11:00:18;;;;;;;2.75;1.40;;;22.50;88.10;;;;;;5082808;28;20070;-70
2022/06/16 11:03:11;;;;;;;2.70;1.50;;;22.60;90.20;;;;;;5085383;28;20048;-69
2022/06/16 11:05:58;;;;;;;2.83;1.52;;;22.60;89.90;;;;;;5063157;28;20108;-70
2022/06/16 11:08:33;;;;;;;2.40;1.30;;;22.60;90.80;;;;;;5071967;28;20123;-70
2022/06/16 11:11:00;;;;;;;3.25;1.40;;;22.80;90.70;;;;;;5073410;28;20040;-70
2022/06/16 11:13:34;;;;;;;3.47;1.45;;;23.20;88.50;;;;;;5070947;28;20059;-71
2022/06/16 11:16:10;;;;;;;5.25;1.70;;;23.10;88.50;;;;;;5083411;28;20426;-69
2022/06/16 11:18:37;;;;;;;2.03;1.17;;;22.90;89.30;;;;;;5088110;28;20449;-70
2022/06/16 11:21:15;;;;;;;1.83;1.10;;;23.20;90.40;;;;;;5083788;28;20451;-70
2022/06/16 11:23:47;;;;;;;1.95;1.30;;;23.40;89.10;;;;;;5071972;28;20036;-71
2022/06/16 11:26:28;;;;;;;3.60;1.25;;;23.50;90.30;;;;;;5071831;28;20044;-69
2022/06/16 11:28:56;;;;;;;3.20;1.60;;;23.60;89.10;;;;;;5084753;28;20048;-70
2022/06/16 11:31:44;;;;;;;1.80;1.30;;;23.20;85.80;;;;;;5078000;28;20546;-70
2022/06/16 11:34:23;;;;;;;3.17;1.33;;;23.20;86.60;;;;;;5091394;28;20058;-70
2022/06/16 11:37:07;;;;;;;3.05;1.35;;;23.30;87.40;;;;;;5078155;28;20040;-69
2022/06/16 11:40:00;;;;;;;2.83;1.15;;;23.30;87.90;;;;;;5054925;28;20048;-70
2022/06/16 11:42:31;;;;;;;2.00;1.30;;;23.10;85.90;;;;;;5055064;28;20209;-70
2022/06/16 11:45:07;;;;;;;3.63;1.45;;;23.30;85.40;;;;;;5090735;28;20043;-70
2022/06/16 11:48:14;;;;;;;3.97;1.80;;;23.20;87.80;;;;;;5079140;28;20133;-70
2022/06/16 11:50:56;;;;;;;4.30;1.60;;;23.40;88.20;;;;;;5061911;28;20056;-70
2022/06/16 11:53:47;;;;;;;1.65;1.30;;;23.50;84.70;;;;;;5088193;28;20040;-70
2022/06/16 11:56:32;;;;;;;2.08;1.27;;;23.90;86.40;;;;;;5085032;28;20044;-70
2022/06/16 11:59:26;;;;;;;1.85;1.27;;;23.70;85.20;;;;;;5059664;28;20047;-70
2022/06/16 12:02:17;;;;;;;2.25;1.30;;;23.80;86.40;;;;;;5075439;28;20161;-70
2022/06/16 12:04:50;;;;;;;1.60;1.40;;;24.10;86.10;;;;;;5053861;28;20048;-70
2022/06/16 12:07:19;;;;;;;3.80;1.55;;;24.20;85.60;;;;;;5064651;28;20055;-70
2022/06/16 12:09:55;;;;;;;2.10;1.20;;;24.10;84.10;;;;;;5091069;28;20052;-70
2022/06/16 12:12:47;;;;;;;2.08;1.20;;;24.30;83.00;;;;;;5064535;28;20879;-70
2022/06/16 12:15:27;;;;;;;1.35;1.00;;;24.30;84.80;;;;;;5076825;28;20056;-70
2022/06/16 12:18:23;;;;;;;1.73;1.25;;;24.70;83.60;;;;;;5091073;28;20048;-70
2022/06/16 12:21:05;;;;;;;2.05;1.10;;;24.50;82.00;;;;;;5057162;28;20041;-70
2022/06/16 12:23:35;;;;;;;3.63;1.73;;;24.70;82.30;;;;;;5085657;28;20039;-70
2022/06/16 12:26:08;;;;;;;3.53;1.45;;;24.00;79.00;;;;;;5090802;28;20131;-69
2022/06/16 12:28:45;;;;;;;2.67;1.30;;;23.90;79.70;;;;;;5086868;28;20056;-69
2022/06/16 12:31:26;;;;;;;2.05;1.40;;;24.40;81.00;;;;;;5072691;28;20119;-70
2022/06/16 12:34:14;;;;;;;2.58;1.30;;;24.20;80.80;;;;;;5087453;28;20088;-69
2022/06/16 12:36:46;;;;;;;3.30;1.40;;;24.30;82.50;;;;;;5057211;28;20106;-70
2022/06/16 12:39:24;;;;;;;2.50;1.10;;;24.50;82.80;;;;;;5087754;28;20072;-70
2022/06/16 12:41:54;;;;;;;1.95;1.02;;;24.70;83.30;;;;;;5078173;28;20043;-69
2022/06/16 12:44:25;;;;;;;4.10;1.83;;;24.70;82.70;;;;;;5090813;28;20071;-70
2022/06/16 12:46:59;;;;;;;2.05;1.20;;;24.60;80.60;;;;;;5063931;28;20443;-69
2022/06/16 12:49:30;;;;;;;3.10;1.25;;;24.80;83.00;;;;;;5090612;28;20097;-70
2022/06/16 12:52:05;;;;;;;1.88;1.23;;;24.50;80.40;;;;;;5056995;28;20039;-70
2022/06/16 12:54:45;;;;;;;5.78;1.30;;;24.20;81.80;;;;;;5083893;28;20052;-70
2022/06/16 12:57:22;;;;;;;2.25;1.30;;;24.10;80.10;;;;;;5065746;28;20399;-70
2022/06/16 12:59:55;;;;;;;1.90;1.20;;;23.90;81.70;;;;;;5076248;28;20430;-70
2022/06/16 13:02:26;;;;;;;1.10;1.00;;;24.20;84.70;;;;;;5078455;28;20235;-70
2022/06/16 13:04:55;;;;;;;1.70;1.10;;;24.50;83.50;;;;;;5089188;28;20044;-70
2022/06/16 13:07:24;;;;;;;1.75;1.20;;;24.30;82.00;;;;;;5070316;28;20098;-70
2022/06/16 13:09:50;;;;;;;2.08;1.30;;;24.10;84.60;;;;;;5070203;28;20048;-70
2022/06/16 13:12:21;;;;;;;2.40;1.70;;;24.10;83.10;;;;;;5058997;28;20380;-70
2022/06/16 13:14:57;;;;;;;2.35;1.40;;;23.70;82.00;;;;;;5076914;28;20041;-70
2022/06/16 13:17:27;;;;;;;2.15;1.20;;;23.70;83.80;;;;;;5072573;28;20045;-69
2022/06/16 13:20:04;;;;;;;3.55;1.45;;;23.80;83.50;;;;;;5082278;28;20048;-69
2022/06/16 13:22:40;;;;;;;3.13;1.38;;;24.00;82.60;;;;;;5072824;28;20072;-69
2022/06/16 13:25:09;;;;;;;2.58;1.58;;;24.20;82.70;;;;;;5083551;28;20390;-69
2022/06/16 13:27:38;;;;;;;2.30;1.17;;;24.10;81.30;;;;;;5089589;28;20093;-69
2022/06/16 13:30:09;;;;;;;3.05;1.50;;;24.50;84.20;;;;;;5080999;28;20083;-69
2022/06/16 13:32:47;;;;;;;3.58;1.33;;;24.40;82.80;;;;;;5070121;28;20040;-69
2022/06/16 13:35:12;;;;;;;3.03;1.65;;;24.30;80.60;;;;;;5089841;28;20047;-70
2022/06/16 13:37:45;;;;;;;3.08;1.33;;;23.80;79.50;;;;;;5088409;28;20400;-69